Aerodrome Latest Weathers

# Airport/Station Observation Time (Local Time) Wind Visibility (km) Weather Temp. (°C) Dewdrop (°C) Air Pressure (hPa)
Direction (from) Speed (km/h)
1 Maimun Saleh - Sabang 2021-04-20 11:00:00 WIB Barat 16.7 >=10 Berawan 31 24 1012
2 Sultan Iskandar Muda - Banda Aceh 2021-04-20 11:00:00 WIB Barat Daya 7.4 >=10 Cerah - berawan 31 22 1011
3 Cut Nyak Dien Nagan Raya - Meulaboh, NAD 2021-04-20 10:00:00 WIB Barat Laut 3.7 >=10 Cerah - berawan 30 24 1012
4 Malikus Saleh - Lhokseumawe 2021-04-20 11:00:00 WIB Barat Laut 3.7 9.0 Cerah - berawan 31 24 1011
5 Binaka - Gunung Sitoli 2021-04-20 11:00:00 WIB Timur Laut 11.1 >=10 Cerah - berawan 32 24 1012
6 Kualanamu International Airport - Deli Serdang 2021-04-20 11:30:00 WIB Barat Laut 13.0 >=10 Berawan 31 25 1011
7 Dr. Ferdinand Lumban Tobing - Pinangsori (Sibolga) 2021-04-20 11:30:00 WIB Barat Laut 9.3 >=10 Berawan 31 22 1010
8 Silangit - Tapanuli Utara 2021-04-20 11:30:00 WIB Timur Laut 5.6 >=10 Berawan 23 16 1019
9 Aek Godang - Padang Sidempuan 2021-04-20 11:30:00 WIB Timur Laut 11.1 >=10 Cerah - berawan 29 21 1011
10 Minangkabau International Airport - Padang 2021-04-20 11:30:00 WIB Barat 9.3 >=10 Cerah - berawan 30 23 1011
11 Sultan Syarif Kasim II - Pekanbaru 2021-04-20 11:30:00 WIB Utara 9.3 >=10 Berawan 31 23 1010
12 Depati Parbo - Kerinci 2021-04-20 10:00:00 WIB Timur 7.4 >=10 Cerah - berawan 26 21 1015
13 Japura - Rengat 2021-04-20 11:00:00 WIB Selatan 7.4 7.0 Berawan 26 24 1012
14 Fatmawati Sukarno - Bengkulu 2021-04-20 11:30:00 WIB Barat 14.8 >=10 Cerah - berawan 31 25 1010
15 Raja Haji Abdullah - Tanjung Balai Karimun 2021-04-20 10:00:00 WIB Barat Daya 7.4 8.0 Cerah - berawan 31 24 1011
16 Sultan Thaha - Jambi 2021-04-20 11:30:00 WIB Timur Laut 3.7 5.0 Hujan ringan 24 24 1012
17 Hang Nadim - Batam 2021-04-20 11:30:00 WIB Timur 7.4 >=10 Berawan 31 25 1012
18 Raja Haji Fisabilillah - Tanjung Pinang 2021-04-20 11:30:00 WIB Barat Daya 14.8 >=10 Berawan 32 23 1011
19 Dabo - Singkep 2021-04-20 11:00:00 WIB Barat 11.1 6.0 Guntur dan hujan 24 24 1013
20 Sultan Mahmud Badaruddin II - Palembang 2021-04-20 11:30:00 WIB Barat Laut 9.3 >=10 Berawan 31 25 1011
21 Radin Inten II - Lampung 2021-04-20 11:30:00 WIB Timur Laut 11.1 >=10 Berawan 31 24 1011
22 Depati Amir - Pangkal Pinang 2021-04-20 11:30:00 WIB Timur 9.3 >=10 Berawan 31 25 1010
23 Budiarto - Curug 2021-04-20 11:00:00 WIB Tenang 6.0 Berawan 31 24 1012
24 Soekarno Hatta - Jakarta 2021-04-20 11:30:00 WIB Timur 11.1 5.0 Hujan ringan 31 25 1011
25 Atang Sendjaja - Bogor 2021-04-20 10:00:00 WIB Tenang 4.0 Udara kabur 29 23 1011
26 Halim Perdana Kusuma - Jakarta 2021-04-20 11:30:00 WIB Utara 5.6 4.0 Udara kabur 32 23 1010
27 Husein Sastranegara - Bandung 2021-04-20 11:00:00 WIB Timur 11.1 >=10 Berawan 29 16 1016
28 Suryadarma - Kalijati, Subang 2021-04-20 11:00:00 WIB Timur 9.3 9.0 Cerah - berawan 32 24 1012
29 H.A.S. Hanandjoeddin - Tanjung Pandan 2021-04-20 11:30:00 WIB Timur 7.4 >=10 Berawan 31 24 1010
30 Kertajati 2021-04-20 11:30:00 WIB Timur 7.4 >=10 Cerah - berawan 32 21 1011
31 Wiriadinata - Cibeureum, Tasikmalaya 2021-04-20 10:00:00 WIB Timur 9.3 5.0 Berawan 28 21 1015
32 Tunggul Wulung - Cilacap 2021-04-20 11:30:00 WIB Tenggara 20.4 >=10 Berawan 31 24 1011
33 Supadio - Pontianak 2021-04-20 11:30:00 WIB Utara 5.6 >=10 Berawan 31 24 1010
34 Rahadi Oesman - Ketapang 2021-04-20 11:30:00 WIB Barat 13.0 >=10 Berawan 32 26 1010
35 Yogyakarta International Airport - Kulonprogo 2021-04-20 11:30:00 WIB Selatan 16.7 9.0 Cerah 31 24 1011
36 Ahmad Yani - Semarang 2021-04-20 11:30:00 WIB Utara 13.0 7.0 Cerah - berawan 31 24 1010
37 Adi Sutjipto - Yogyakarta 2021-04-20 10:30:00 WIB Selatan 3.7 7.0 Cerah - berawan 29 22 1011
38 Adi Soemarmo - Surakarta 2021-04-20 11:30:00 WIB Barat Daya 5.6 >=10 Cerah - berawan 30 22 1011
39 Tebelian - Sintang 2021-04-20 11:30:00 WIB Timur 3.7 >=10 Berawan 30 25 1011
40 Iskandar - Pangkalan Bun 2021-04-20 11:30:00 WIB Tenggara 7.4 >=10 Berawan 32 24 1010
41 Nanga Pinoh 2021-04-20 10:00:00 WIB Barat Laut 3.7 8.0 Berawan 28 23 1012
42 Abdulrachman Saleh - Malang 2021-04-20 10:00:00 WIB Selatan 9.3 7.0 Cerah - berawan 29 18 1016
43 Juanda - Surabaya 2021-04-20 11:30:00 WIB Timur 11.1 >=10 Cerah - berawan 32 20 1010
44 Haji Asan - Sampit 2021-04-20 11:30:00 WIB Tenggara 9.3 >=10 Berawan 34 24 1009
45 Noto Hadinegoro - Jember 2021-04-20 11:00:00 WIB Barat Laut 13.0 >=10 Cerah - berawan 31 22 1012
46 Tjilik Riwut - Palangkaraya 2021-04-20 11:30:00 WIB Barat 3.7 >=10 Berawan 33 22 1010
47 Banyuwangi 2021-04-20 11:30:00 WIB Tenggara 9.3 9.0 Cerah - berawan 31 23 1011
48 Beringin - Muara Teweh 2021-04-20 11:30:00 WIB Barat 9.3 >=10 Berawan 31 24 1010
49 Sanggu - Buntok 2021-04-20 11:30:00 WIB Barat Daya 5.6 >=10 Berawan 32 24 1011
50 H. Hasan Aroeboesman - Ende 2021-04-20 11:30:00 WIB Tenggara 9.3 8.0 Berawan 29 23 1010
51 Syamsudin Noor - Banjarmasin 2021-04-20 12:00:00 WITA Selatan 5.6 >=10 Berawan 32 23 1010
52 I Gusti Ngurah Rai - Denpasar 2021-04-20 12:30:00 WITA Barat Daya 9.3 >=10 Berawan 29 24 1011
53 Yuvai Semaring - Long Bawang 2021-04-20 12:00:00 WITA Selatan 11.1 8.0 Berawan 25 18 1017
54 Gusti Sjamsir Alam - Kota Baru 2021-04-20 12:00:00 WITA Selatan 20.4 8.0 Berawan 31 24 1009
55 Bandara Internasional Lombok - Praya 2021-04-20 12:30:00 WITA Timur 18.5 8.0 Berawan 31 22 1011
56 Sultan Aji Muhammad Sulaiman - Sepinggan 2021-04-20 12:30:00 WITA Selatan 11.1 >=10 Cerah - berawan 31 26 1009
57 Aji Pangeran Tumenggung Pranoto - Samarinda 2021-04-20 12:30:00 WITA Variabel 11.1 >=10 Berawan 34 24 1009
58 Tanjung Harapan - Tanjung Selor 2021-04-20 12:30:00 WITA Tenang 8.0 Cerah - berawan 32 25 1009
59 Sultan Muhammad Kaharuddin - Sumbawa Besar 2021-04-20 12:30:00 WITA Selatan 11.1 >=10 Berawan 32 22 1009
60 Kalimarau - Tanjung Redeb 2021-04-20 12:30:00 WITA Barat Laut 9.3 8.0 Berawan 34 25 1009
61 Juwata - Tarakan 2021-04-20 12:00:00 WITA Barat Daya 7.4 9.0 Berawan 31 25 1010
62 Nunukan 2021-04-20 12:00:00 WITA Timur 9.3 8.0 Cerah - berawan 31 24 1009
63 Sultan Muhammad Salahuddin - Bima 2021-04-20 12:30:00 WITA Tenggara 18.5 >=10 Cerah - berawan 31 21 1010
64 Tambolaka - Sumba Barat 2021-04-20 12:00:00 WITA Utara 14.8 >=10 Berawan 30 22 1012
65 Sultan Hasanuddin - Makassar 2021-04-20 12:30:00 WITA Timur 1.9 >=10 Cerah - berawan 31 23 1009
66 Pongtiku - Tana Toraja 2021-04-20 12:00:00 WITA Timur 13.0 >=10 Berawan 27 20 1010
67 Komodo - Labuan Bajo 2021-04-20 12:30:00 WITA Barat 11.1 >=10 Cerah - berawan 30 24 1010
68 Mutiara SIS Al-Jufri - Palu 2021-04-20 12:30:00 WITA Barat Laut 20.4 >=10 Cerah - berawan 33 24 1010
69 Umbu Mehang Kunda - Waingapu 2021-04-20 12:00:00 WITA Timur Laut 16.7 >=10 Berawan 30 23 1011
70 Andi Jemma - Masamba 2021-04-20 12:00:00 WITA Selatan 9.3 9.0 Cerah - berawan 32 23 1009
71 Frans Sales Lega - Ruteng 2021-04-20 12:30:00 WITA Barat 7.4 Cerah - berawan 25 15 1016
72 Kasiguncu - Poso 2021-04-20 12:00:00 WITA Timur Laut 11.1 9.0 Berawan 32 25 1009
73 Sultan Bantilan - Toli Toli 2021-04-20 12:00:00 WITA Barat Laut 7.4 >=10 Cerah - berawan 32 22 1009
74 Tardamu - Sabu 2021-04-20 12:00:00 WITA Barat 9.3 >=10 Berawan 31 21 1011
75 Fransiskus Xaverius Seda - Maumere 2021-04-20 12:30:00 WITA Selatan 13.0 >=10 Berawan 33 25 1010
76 Haluoleo - Kendari 2021-04-20 12:30:00 WITA Timur Laut 9.3 >=10 Berawan 31 24 1010
77 Beto Ambari - Bau Bau 2021-04-20 12:00:00 WITA Barat Daya 9.3 >=10 Berawan 30 26 1011
78 Djalaluddin - Gorontalo 2021-04-20 12:30:00 WITA Selatan 7.4 >=10 Berawan 32 25 1007
79 Gewayantana - Larantuka 2021-04-20 12:00:00 WITA Selatan 9.3 >=10 Cerah - berawan 33 22 1009
80 David Constantijn Saudale - Rote 2021-04-20 12:00:00 WITA Selatan 13.0 >=10 Berawan 29 23 1015
81 El Tari - Kupang 2021-04-20 12:30:00 WITA Barat Laut 13.0 >=10 Cerah - berawan 31 20 1009
82 Mali - Alor 2021-04-20 12:00:00 WITA Utara 11.1 >=10 Cerah - berawan 31 24 1010
83 A.A. Bere Talo / Atambua 2021-04-20 12:00:00 WITA Timur Laut 9.3 >=10 Cerah - berawan 29 18 1011
84 Sam Ratulangi - Manado 2021-04-20 12:30:00 WITA Barat Laut 11.1 >=10 Cerah - berawan 33 25 1009
85 Emalamo - Sanana 2021-04-20 13:22:00 WIT Tenggara 5.6 7.0 Hujan ringan 32 26 1008
86 Namniwel - Namlea 2021-04-20 12:00:00 WIT Timur 9.3 >=10 Cerah - berawan 31 26 1008
87 Sultan Babullah - Ternate 2021-04-20 13:30:00 WIT Utara 13.0 >=10 Berawan 30 26 1009
88 Oesman Sadik - Labuha 2021-04-20 12:00:00 WIT Barat 9.3 9.0 Berawan 30 24 1009
89 Gamar Malamo - Galela 2021-04-20 12:00:00 WIT Tenang >=10 Berawan 32 27 1009
90 Kuabang Kao 2021-04-20 12:00:00 WIT Barat Daya 13.0 >=10 Berawan 31 24 1009
91 Pattimura - Ambon 2021-04-20 13:30:00 WIT Barat Daya 11.1 >=10 Berawan 32 25 1007
92 Pitu - Morotai 2021-04-20 13:00:00 WIT Barat Daya 5.6 >=10 Cerah - berawan 31 25 1008
93 Amahai 2021-04-20 13:00:00 WIT Selatan 3.7 >=10 Berawan 30 25 1008
94 Bandaneira - Banda 2021-04-20 13:00:00 WIT Timur 5.6 >=10 Berawan 30 24 1008
95 Domine Eduard Osok - Sorong 2021-04-20 13:30:00 WIT Barat 9.3 9.0 Berawan 29 25 1007
96 Mathilda Batlayeri - Saumlaki 2021-04-20 13:00:00 WIT Tenggara 7.4 >=10 Berawan 30 24 1008
97 Torea - Fak Fak 2021-04-20 13:00:00 WIT Barat Daya 13.0 >=10 Berawan 29 23 1010
98 Dumatubun - Langgur 2021-04-20 13:00:00 WIT Timur 7.4 >=10 Berawan 29 26 1008
99 Rendani - Manokwari 2021-04-20 13:30:00 WIT Timur 11.1 9.0 Berawan 28 25 1008
100 Douw Aturure - Nabire 2021-04-20 13:30:00 WIT Utara 9.3 8.0 Berawan 29 25 1008
101 Frans Kaisiepo - Biak 2021-04-20 13:30:00 WIT Variabel 3.7 6.0 Hujan ringan 24 24 1010
102 Enarotali 2021-04-20 13:00:00 WIT Barat Laut 16.7 9.0 Berawan 23 18 1008
103 Mozes Kilangin - Timika 2021-04-20 13:30:00 WIT Variabel 9.3 8.0 Hujan tiba-tiba di sekitarnya 29 26 1008
104 Mararena / Orai - Sarmi 2021-04-20 11:00:00 WIT Timur Laut 7.4 >=10 Cerah - berawan 31 24 1009
105 Wamena 2021-04-20 13:30:00 WIT Barat Laut 18.5 >=10 Berawan 28 17 1017
106 Tanah Merah 2021-04-20 13:00:00 WIT Barat 9.3 >=10 Berawan 32 24 1008
107 Mopah - Merauke 2021-04-20 13:30:00 WIT Barat 7.4 8.0 Berawan 30 24 1007
108 Sentani - Jayapura 2021-04-20 13:30:00 WIT Tenggara 9.3 >=10 Berawan 33 24 1007

Satellite Images

Wave Height Forecast

Wind Forecast

Forest Fires